createdAt,value
2023-01-01T00:00:03.791Z,15.20
2023-01-01T00:02:37.415Z,15.30
2023-01-01T00:05:06.119Z,15.20
2023-01-01T00:07:33.434Z,15.30
2023-01-01T00:10:18.743Z,15.30
2023-01-01T00:12:46.374Z,15.30
2023-01-01T00:15:13.050Z,15.30
2023-01-01T00:17:40.339Z,15.30
2023-01-01T00:20:07.923Z,15.30
2023-01-01T00:22:53.881Z,15.30
2023-01-01T00:25:21.861Z,15.30
2023-01-01T00:27:50.959Z,15.30
2023-01-01T00:30:17.675Z,15.30
2023-01-01T00:32:55.608Z,15.20
2023-01-01T00:35:27.265Z,15.20
2023-01-01T00:37:55.401Z,15.10
2023-01-01T00:40:22.356Z,15.20
2023-01-01T00:42:50.194Z,15.10
2023-01-01T00:45:21.495Z,15.10
2023-01-01T00:47:51.861Z,15.00
2023-01-01T00:50:19.465Z,15.00
2023-01-01T00:52:47.213Z,15.00
2023-01-01T00:55:13.850Z,15.00
2023-01-01T00:57:41.497Z,14.90
2023-01-01T01:00:11.909Z,14.90
2023-01-01T01:02:39.575Z,14.90
2023-01-01T01:05:07.088Z,14.90
2023-01-01T01:07:36.902Z,14.90
2023-01-01T01:10:07.233Z,14.90
2023-01-01T01:12:35.456Z,14.80
2023-01-01T01:15:03.544Z,14.80
2023-01-01T01:17:30.952Z,14.80
2023-01-01T01:20:00.229Z,14.90
2023-01-01T01:22:28.974Z,14.90
2023-01-01T01:24:56.657Z,14.90
2023-01-01T01:27:24.755Z,14.90
2023-01-01T01:29:52.037Z,14.90
2023-01-01T01:32:19.583Z,14.90
2023-01-01T01:34:46.694Z,14.90
2023-01-01T01:37:14.057Z,14.90
2023-01-01T01:39:40.707Z,14.80
2023-01-01T01:42:07.816Z,14.70
2023-01-01T01:45:06.429Z,14.70
2023-01-01T01:47:47.894Z,14.80
2023-01-01T01:50:34.127Z,14.70
2023-01-01T01:53:13.475Z,14.70
2023-01-01T01:55:46.643Z,14.60
2023-01-01T01:58:16.089Z,14.60
2023-01-01T02:00:43.598Z,14.60
2023-01-01T02:03:23.304Z,14.60
2023-01-01T02:05:51.405Z,14.60
2023-01-01T02:08:19.890Z,14.60
2023-01-01T02:10:47.497Z,14.60
2023-01-01T02:13:15.812Z,14.50
2023-01-01T02:15:52.572Z,14.50
2023-01-01T02:18:26.295Z,14.60
2023-01-01T02:21:06.987Z,14.60
2023-01-01T02:23:55.787Z,14.50
2023-01-01T02:26:39.609Z,14.50
2023-01-01T02:29:25.294Z,14.50
2023-01-01T02:32:05.525Z,14.50
2023-01-01T02:34:43.737Z,14.50
2023-01-01T02:37:15.264Z,14.50
2023-01-01T02:39:53.432Z,14.50
2023-01-01T02:42:23.788Z,14.50
2023-01-01T02:44:54.324Z,14.50
2023-01-01T02:47:21.840Z,14.50
2023-01-01T02:50:22.307Z,14.40
2023-01-01T02:53:01.442Z,14.40
2023-01-01T02:55:46.978Z,14.40
2023-01-01T02:58:36.860Z,14.40
2023-01-01T03:01:20.616Z,14.40
2023-01-01T03:03:55.390Z,14.40
2023-01-01T03:06:55.170Z,14.40
2023-01-01T03:09:43.739Z,14.30
2023-01-01T03:12:23.259Z,14.30
2023-01-01T03:15:02.676Z,14.30
2023-01-01T03:17:41.603Z,14.30
2023-01-01T03:20:16.607Z,14.20
2023-01-01T03:25:16.664Z,14.20
2023-01-01T03:28:10.851Z,14.30
2023-01-01T03:30:39.573Z,14.30
2023-01-01T03:33:22.637Z,14.30
2023-01-01T03:36:13.507Z,14.30
2023-01-01T03:38:49.585Z,14.30
2023-01-01T03:41:36.328Z,14.30
2023-01-01T03:44:27.296Z,14.20
2023-01-01T03:46:54.450Z,14.20
2023-01-01T03:49:22.285Z,14.20
2023-01-01T03:52:04.126Z,14.20
2023-01-01T03:54:43.421Z,14.20
2023-01-01T03:57:50.637Z,14.30
2023-01-01T04:00:21.564Z,14.20
2023-01-01T04:03:01.187Z,14.20
2023-01-01T04:05:30.197Z,14.20
2023-01-01T04:08:02.213Z,14.20
2023-01-01T04:10:31.706Z,14.20
2023-01-01T04:12:59.904Z,14.20
2023-01-01T04:15:28.301Z,14.20
2023-01-01T04:17:55.766Z,14.20
2023-01-01T04:20:23.241Z,14.20
2023-01-01T04:22:50.271Z,14.20
2023-01-01T04:25:18.084Z,14.20
2023-01-01T04:27:45.321Z,14.20
2023-01-01T04:30:13.863Z,14.10
2023-01-01T04:32:42.078Z,14.10
2023-01-01T04:35:12.597Z,14.10
2023-01-01T04:37:44.782Z,14.10
2023-01-01T04:40:13.026Z,14.20
2023-01-01T04:42:40.811Z,14.20
2023-01-01T04:45:08.334Z,14.20
2023-01-01T04:47:35.746Z,14.20
2023-01-01T04:50:02.681Z,14.10
2023-01-01T04:52:30.277Z,14.20
2023-01-01T04:54:57.299Z,14.20
2023-01-01T04:57:24.657Z,14.20
2023-01-01T04:59:51.303Z,14.10
2023-01-01T05:02:18.341Z,14.10
2023-01-01T05:04:45.836Z,14.10
2023-01-01T05:07:12.670Z,14.10
2023-01-01T05:09:40.012Z,14.00
2023-01-01T05:12:07.051Z,14.00
2023-01-01T05:14:34.476Z,14.00
2023-01-01T05:17:01.220Z,14.00
2023-01-01T05:19:28.550Z,14.00
2023-01-01T05:21:56.018Z,14.00
2023-01-01T05:24:22.771Z,14.00
2023-01-01T05:26:49.820Z,14.00
2023-01-01T05:29:17.591Z,14.00
2023-01-01T05:31:45.521Z,14.00
2023-01-01T05:34:13.332Z,14.00
2023-01-01T05:36:40.353Z,14.00
2023-01-01T05:39:10.263Z,14.10
2023-01-01T05:41:37.332Z,14.10
2023-01-01T05:44:06.694Z,14.10
2023-01-01T05:46:33.747Z,14.00
2023-01-01T05:49:01.375Z,14.00
2023-01-01T05:51:29.460Z,13.90
2023-01-01T05:53:58.391Z,13.90
2023-01-01T05:56:26.376Z,14.00
2023-01-01T05:58:54.273Z,14.00
2023-01-01T06:01:24.047Z,13.90
2023-01-01T06:03:52.502Z,13.90
2023-01-01T06:06:22.008Z,14.00
2023-01-01T06:08:54.993Z,14.00
2023-01-01T06:11:22.351Z,14.00
2023-01-01T06:13:55.915Z,13.90
2023-01-01T06:16:23.331Z,13.90
2023-01-01T06:18:50.952Z,13.90
2023-01-01T06:21:20.265Z,13.90
2023-01-01T06:23:48.247Z,13.90
2023-01-01T06:26:17.895Z,13.90
2023-01-01T06:28:46.717Z,13.90
2023-01-01T06:31:16.583Z,14.00
2023-01-01T06:33:44.618Z,13.90
2023-01-01T06:36:13.515Z,13.90
2023-01-01T06:38:45.371Z,13.90
2023-01-01T06:41:17.529Z,13.90
2023-01-01T06:43:44.676Z,14.00
2023-01-01T06:46:22.346Z,13.90
2023-01-01T06:48:51.548Z,13.90
2023-01-01T06:51:21.649Z,13.90
2023-01-01T06:53:50.024Z,13.90
2023-01-01T06:56:18.113Z,13.90
2023-01-01T06:58:46.213Z,13.90
2023-01-01T07:01:21.894Z,13.90
2023-01-01T07:04:00.619Z,13.80
2023-01-01T07:06:30.006Z,13.80
2023-01-01T07:08:57.418Z,13.80
2023-01-01T07:11:25.882Z,13.80
2023-01-01T07:13:52.937Z,13.80
2023-01-01T07:16:20.688Z,13.70
2023-01-01T07:18:49.089Z,13.70
2023-01-01T07:21:31.869Z,13.70
2023-01-01T07:24:03.126Z,13.60
2023-01-01T07:26:32.581Z,13.50
2023-01-01T07:29:06.905Z,13.40
2023-01-01T07:31:40.357Z,13.40
2023-01-01T07:34:09.755Z,13.30
2023-01-01T07:36:37.245Z,13.30
2023-01-01T07:39:04.034Z,13.20
2023-01-01T07:41:31.416Z,13.10
2023-01-01T07:43:59.329Z,13.10
2023-01-01T07:46:27.287Z,13.10
2023-01-01T07:48:54.199Z,13.10
2023-01-01T07:51:21.722Z,13.10
2023-01-01T07:53:48.651Z,13.10
2023-01-01T07:56:16.217Z,13.10
2023-01-01T07:58:42.885Z,13.10
2023-01-01T08:01:12.288Z,13.10
2023-01-01T08:03:39.291Z,13.10
2023-01-01T08:06:11.106Z,13.10
2023-01-01T08:08:38.974Z,13.10
2023-01-01T08:11:06.490Z,13.10
2023-01-01T08:13:33.901Z,13.10
2023-01-01T08:16:00.929Z,13.10
2023-01-01T08:18:28.481Z,13.10
2023-01-01T08:20:57.263Z,13.10
2023-01-01T08:23:24.812Z,13.10
2023-01-01T08:25:51.628Z,13.10
2023-01-01T08:28:18.667Z,13.00
2023-01-01T08:30:45.366Z,13.00
2023-01-01T08:33:12.678Z,13.00
2023-01-01T08:35:42.636Z,13.00
2023-01-01T08:38:13.054Z,13.10
2023-01-01T08:40:40.297Z,13.10
2023-01-01T08:43:07.368Z,13.00
2023-01-01T08:45:34.434Z,13.10
2023-01-01T08:48:01.942Z,13.10
2023-01-01T08:50:28.698Z,13.10
2023-01-01T08:52:56.044Z,13.10
2023-01-01T08:55:22.798Z,13.20
2023-01-01T08:57:49.924Z,13.20
2023-01-01T09:00:17.287Z,13.20
2023-01-01T09:02:45.247Z,13.20
2023-01-01T09:05:11.942Z,13.20
2023-01-01T09:07:39.432Z,13.20
2023-01-01T09:10:06.678Z,13.20
2023-01-01T09:12:37.340Z,13.20
2023-01-01T09:15:04.705Z,13.20
2023-01-01T09:17:32.127Z,13.20
2023-01-01T09:19:58.817Z,13.30
2023-01-01T09:22:26.227Z,13.30
2023-01-01T09:24:53.191Z,13.30
2023-01-01T09:27:20.647Z,13.30
2023-01-01T09:29:47.736Z,13.30
2023-01-01T09:32:15.057Z,13.30
2023-01-01T09:34:44.020Z,13.40
2023-01-01T09:37:14.770Z,13.40
2023-01-01T09:39:41.980Z,13.30
2023-01-01T09:42:37.304Z,13.30
2023-01-01T09:45:20.033Z,13.30
2023-01-01T09:47:51.492Z,13.30
2023-01-01T09:50:22.329Z,13.30
2023-01-01T09:52:49.053Z,13.30
2023-01-01T09:55:25.138Z,13.30
2023-01-01T09:57:52.107Z,13.30
2023-01-01T10:00:20.311Z,13.30
2023-01-01T10:03:03.536Z,13.30
2023-01-01T10:05:40.003Z,13.30
2023-01-01T10:08:23.629Z,13.30
2023-01-01T10:11:00.568Z,13.30
2023-01-01T10:13:33.319Z,13.40
2023-01-01T10:16:09.349Z,13.40
2023-01-01T10:18:38.940Z,13.50
2023-01-01T10:21:15.430Z,13.50
2023-01-01T10:23:56.161Z,13.50
2023-01-01T10:26:26.702Z,13.60
2023-01-01T10:29:11.917Z,13.60
2023-01-01T10:31:45.682Z,13.60
2023-01-01T10:34:20.007Z,13.70
2023-01-01T10:36:47.624Z,13.70
2023-01-01T10:39:19.196Z,13.70
2023-01-01T10:41:46.411Z,13.70
2023-01-01T10:44:17.440Z,13.70
2023-01-01T10:46:53.264Z,13.80
2023-01-01T10:49:20.880Z,13.80
2023-01-01T10:51:50.273Z,13.80
2023-01-01T10:54:33.314Z,13.90
2023-01-01T10:57:13.766Z,13.90
2023-01-01T10:59:48.169Z,13.90
2023-01-01T11:02:25.401Z,14.00
2023-01-01T11:05:19.194Z,14.10
2023-01-01T11:07:48.620Z,14.10
2023-01-01T11:10:26.031Z,14.10
2023-01-01T11:13:09.797Z,14.00
2023-01-01T11:15:42.716Z,14.00
2023-01-01T11:18:15.877Z,14.10
2023-01-01T11:20:43.829Z,14.10
2023-01-01T11:23:35.273Z,14.00
2023-01-01T11:26:06.623Z,14.00
2023-01-01T11:28:35.600Z,14.00
2023-01-01T11:31:16.822Z,14.00
2023-01-01T11:33:49.340Z,14.00
2023-01-01T11:36:32.531Z,14.00
2023-01-01T11:39:25.691Z,14.00
2023-01-01T11:41:55.219Z,14.00
2023-01-01T11:44:42.343Z,14.00
2023-01-01T11:47:30.303Z,14.00
2023-01-01T11:50:02.990Z,14.00
2023-01-01T11:52:37.526Z,14.00
2023-01-01T11:55:34.295Z,14.00
2023-01-01T11:58:14.380Z,14.00
2023-01-01T12:00:47.656Z,13.90
2023-01-01T12:03:34.346Z,14.00
2023-01-01T12:06:08.002Z,14.00
2023-01-01T12:09:03.450Z,14.00
2023-01-01T12:11:38.179Z,14.00
2023-01-01T12:14:40.150Z,14.00
2023-01-01T12:17:33.522Z,14.00
2023-01-01T12:20:13.298Z,14.00
2023-01-01T12:22:41.409Z,14.00
2023-01-01T12:25:14.287Z,13.90
2023-01-01T12:28:03.298Z,13.90
2023-01-01T12:30:50.451Z,13.90
2023-01-01T12:33:39.747Z,13.90
2023-01-01T12:36:10.846Z,13.90
2023-01-01T12:38:59.570Z,13.80
2023-01-01T12:41:49.385Z,13.80
2023-01-01T12:44:48.543Z,13.70
2023-01-01T12:47:32.298Z,13.70
2023-01-01T12:50:34.012Z,13.70
2023-01-01T12:53:27.726Z,13.70
2023-01-01T12:56:03.868Z,13.70
2023-01-01T12:58:56.054Z,13.70
2023-01-01T13:01:33.084Z,13.70
2023-01-01T13:04:07.789Z,13.80
2023-01-01T13:06:47.578Z,13.80
2023-01-01T13:09:18.390Z,13.70
2023-01-01T13:11:49.611Z,13.70
2023-01-01T13:14:16.535Z,13.80
2023-01-01T13:16:50.890Z,13.70
2023-01-01T13:19:30.495Z,13.70
2023-01-01T13:21:58.340Z,13.60
2023-01-01T13:24:27.015Z,13.60
2023-01-01T13:26:54.912Z,13.50
2023-01-01T13:29:21.512Z,13.60
2023-01-01T13:31:48.820Z,13.50
2023-01-01T13:34:31.286Z,13.50
2023-01-01T13:37:41.879Z,13.50
2023-01-01T13:40:11.840Z,13.50
2023-01-01T13:42:52.497Z,13.50
2023-01-01T13:48:43.142Z,13.40
2023-01-01T13:54:40.207Z,13.40
2023-01-01T13:57:31.960Z,13.40
2023-01-01T14:00:05.332Z,13.30
2023-01-01T14:02:59.048Z,13.30
2023-01-01T14:05:37.843Z,13.20
2023-01-01T14:08:08.596Z,13.20
2023-01-01T14:10:40.644Z,13.20
2023-01-01T14:13:08.275Z,13.10
2023-01-01T14:15:42.047Z,13.10
2023-01-01T14:18:15.465Z,13.10
2023-01-01T14:20:47.993Z,13.10
2023-01-01T14:23:30.896Z,13.10
2023-01-01T14:25:58.882Z,13.00
2023-01-01T14:28:32.719Z,13.00
2023-01-01T14:31:10.436Z,13.00
2023-01-01T14:33:39.373Z,13.00
2023-01-01T14:36:23.256Z,13.00
2023-01-01T14:38:52.624Z,13.00
2023-01-01T14:41:26.946Z,13.00
2023-01-01T14:44:02.484Z,12.90
2023-01-01T14:46:31.005Z,12.90
2023-01-01T14:49:08.205Z,12.90
2023-01-01T14:51:40.836Z,12.90
2023-01-01T14:54:17.150Z,12.90
2023-01-01T14:56:47.791Z,12.90
2023-01-01T14:59:25.834Z,12.80
2023-01-01T15:02:12.794Z,12.80
2023-01-01T15:04:40.643Z,12.80
2023-01-01T15:07:21.843Z,12.80
2023-01-01T15:09:49.237Z,12.80
2023-01-01T15:12:23.126Z,12.70
2023-01-01T15:14:53.202Z,12.70
2023-01-01T15:17:25.764Z,12.60
2023-01-01T15:20:06.266Z,12.60
2023-01-01T15:22:36.047Z,12.60
2023-01-01T15:25:04.525Z,12.50
2023-01-01T15:27:34.672Z,12.50
2023-01-01T15:30:09.829Z,12.40
2023-01-01T15:32:41.217Z,12.40
2023-01-01T15:35:31.422Z,12.40
2023-01-01T15:38:34.573Z,12.30
2023-01-01T15:41:21.832Z,12.30
2023-01-01T15:43:48.486Z,12.30
2023-01-01T15:46:38.368Z,12.30
2023-01-01T15:49:23.659Z,12.30
2023-01-01T15:51:51.960Z,12.30
2023-01-01T15:54:18.921Z,12.20
2023-01-01T15:56:46.326Z,12.20
2023-01-01T15:59:33.341Z,12.10
2023-01-01T16:02:21.987Z,12.10
2023-01-01T16:04:50.160Z,12.10
2023-01-01T16:07:21.095Z,12.10
2023-01-01T16:09:51.994Z,12.10
2023-01-01T16:12:24.402Z,12.00
2023-01-01T16:14:54.387Z,12.00
2023-01-01T16:17:22.034Z,12.00
2023-01-01T16:19:51.610Z,12.00
2023-01-01T16:22:20.337Z,11.90
2023-01-01T16:24:47.504Z,11.90
2023-01-01T16:27:15.526Z,11.80
2023-01-01T16:29:43.871Z,11.80
2023-01-01T16:32:19.015Z,11.70
2023-01-01T16:34:45.943Z,11.70
2023-01-01T16:37:12.690Z,11.60
2023-01-01T16:39:40.063Z,11.60
2023-01-01T16:42:10.564Z,11.50
2023-01-01T16:44:41.795Z,11.50
2023-01-01T16:47:08.873Z,11.40
2023-01-01T16:49:36.550Z,11.40
2023-01-01T16:52:03.324Z,11.30
2023-01-01T16:54:30.638Z,11.30
2023-01-01T16:56:57.332Z,11.20
2023-01-01T16:59:24.973Z,11.10
2023-01-01T17:01:53.667Z,11.10
2023-01-01T17:04:21.312Z,11.10
2023-01-01T17:06:48.109Z,11.00
2023-01-01T17:09:15.771Z,11.00
2023-01-01T17:11:42.740Z,11.00
2023-01-01T17:14:10.666Z,11.00
2023-01-01T17:16:39.788Z,10.90
2023-01-01T17:19:16.240Z,10.90
2023-01-01T17:21:46.817Z,10.80
2023-01-01T17:24:19.159Z,10.80
2023-01-01T17:26:50.389Z,10.80
2023-01-01T17:29:17.191Z,10.80
2023-01-01T17:31:44.752Z,10.80
2023-01-01T17:34:14.390Z,10.80
2023-01-01T17:36:43.534Z,10.80
2023-01-01T17:39:14.915Z,10.80
2023-01-01T17:41:44.121Z,10.80
2023-01-01T17:44:11.449Z,10.80
2023-01-01T17:46:40.474Z,10.80
2023-01-01T17:49:08.803Z,10.80
2023-01-01T17:51:36.208Z,10.80
2023-01-01T17:54:04.524Z,10.80
2023-01-01T17:56:32.197Z,10.80
2023-01-01T17:58:58.867Z,10.80
2023-01-01T18:01:34.662Z,10.70
2023-01-01T18:04:06.590Z,10.70
2023-01-01T18:06:41.104Z,10.80
2023-01-01T18:09:11.760Z,10.80
2023-01-01T18:11:39.623Z,10.70
2023-01-01T18:14:06.419Z,10.70
2023-01-01T18:16:36.425Z,10.70
2023-01-01T18:19:06.458Z,10.70
2023-01-01T18:21:34.851Z,10.80
2023-01-01T18:24:02.238Z,10.70
2023-01-01T18:26:31.360Z,10.70
2023-01-01T18:29:00.979Z,10.70
2023-01-01T18:31:30.547Z,10.70
2023-01-01T18:33:57.382Z,10.70
2023-01-01T18:36:30.360Z,10.70
2023-01-01T18:39:22.031Z,10.70
2023-01-01T18:41:49.447Z,10.70
2023-01-01T18:44:30.522Z,10.70
2023-01-01T18:47:07.038Z,10.70
2023-01-01T18:49:36.008Z,10.70
2023-01-01T18:52:06.118Z,10.70
2023-01-01T18:54:33.544Z,10.70
2023-01-01T18:57:17.200Z,10.70
2023-01-01T18:59:43.878Z,10.70
2023-01-01T19:02:36.879Z,10.70
2023-01-01T19:05:24.401Z,10.70
2023-01-01T19:08:06.715Z,10.70
2023-01-01T19:10:55.808Z,10.70
2023-01-01T19:13:24.711Z,10.60
2023-01-01T19:16:13.037Z,10.60
2023-01-01T19:18:45.664Z,10.60
2023-01-01T19:21:12.452Z,10.60
2023-01-01T19:23:55.650Z,10.60
2023-01-01T19:26:26.836Z,10.60
2023-01-01T19:28:56.615Z,10.60
2023-01-01T19:31:23.759Z,10.60
2023-01-01T19:33:50.747Z,10.60
2023-01-01T19:36:19.681Z,10.60
2023-01-01T19:38:47.042Z,10.60
2023-01-01T19:41:13.720Z,10.60
2023-01-01T19:43:41.455Z,10.50
2023-01-01T19:46:08.256Z,10.60
2023-01-01T19:48:35.686Z,10.60
2023-01-01T19:51:02.553Z,10.60
2023-01-01T19:53:29.908Z,10.50
2023-01-01T19:55:56.683Z,10.60
2023-01-01T19:58:24.127Z,10.60
2023-01-01T20:00:51.526Z,10.60
2023-01-01T20:06:07.885Z,10.60
2023-01-01T20:08:35.257Z,10.60
2023-01-01T20:11:01.909Z,10.60
2023-01-01T20:13:29.568Z,10.60
2023-01-01T20:15:56.385Z,10.70
2023-01-01T20:18:23.895Z,10.60
2023-01-01T20:21:09.098Z,10.70
2023-01-01T20:23:36.663Z,10.70
2023-01-01T20:26:04.133Z,10.70
2023-01-01T20:28:50.114Z,10.70
2023-01-01T20:31:18.789Z,10.70
2023-01-01T20:33:46.346Z,10.70
2023-01-01T20:36:31.685Z,10.70
2023-01-01T20:38:59.267Z,10.70
2023-01-01T20:41:26.163Z,10.70
2023-01-01T20:44:02.764Z,10.70
2023-01-01T20:46:29.965Z,10.70
2023-01-01T20:48:58.301Z,10.70
2023-01-01T20:51:26.794Z,10.70
2023-01-01T20:53:54.122Z,10.70
2023-01-01T20:56:20.862Z,10.80
2023-01-01T20:58:51.143Z,10.70
2023-01-01T21:01:20.121Z,10.80
2023-01-01T21:03:47.552Z,10.80
2023-01-01T21:06:18.446Z,10.80
2023-01-01T21:08:49.404Z,10.70
2023-01-01T21:11:16.210Z,10.80
2023-01-01T21:13:47.103Z,10.80
2023-01-01T21:16:20.914Z,10.80
2023-01-01T21:18:49.470Z,10.80
2023-01-01T21:21:22.781Z,10.80
2023-01-01T21:23:52.596Z,10.80
2023-01-01T21:26:39.638Z,10.80
2023-01-01T21:29:19.483Z,10.80
2023-01-01T21:31:49.379Z,10.80
2023-01-01T21:34:26.914Z,10.80
2023-01-01T21:37:00.347Z,10.80
2023-01-01T21:39:30.961Z,10.80
2023-01-01T21:42:14.245Z,10.80
2023-01-01T21:44:41.802Z,10.70
2023-01-01T21:47:21.104Z,10.80
2023-01-01T21:49:48.769Z,10.70
2023-01-01T21:52:20.004Z,10.80
2023-01-01T21:54:48.580Z,10.70
2023-01-01T21:57:18.821Z,10.80
2023-01-01T21:59:47.470Z,10.80
2023-01-01T22:02:14.490Z,10.80
2023-01-01T22:04:49.117Z,10.80
2023-01-01T22:10:21.463Z,10.80
2023-01-01T22:12:49.179Z,10.80
2023-01-01T22:15:25.810Z,10.80
2023-01-01T22:18:12.160Z,10.80
2023-01-01T22:20:42.633Z,10.80
2023-01-01T22:23:37.480Z,10.80
2023-01-01T22:26:18.134Z,10.90
2023-01-01T22:28:46.981Z,10.90
2023-01-01T22:31:21.726Z,10.80
2023-01-01T22:33:49.691Z,10.90
2023-01-01T22:36:29.036Z,10.90
2023-01-01T22:39:00.626Z,10.90
2023-01-01T22:41:28.720Z,10.90
2023-01-01T22:44:03.392Z,10.90
2023-01-01T22:46:37.317Z,10.90
2023-01-01T22:49:19.191Z,10.80
2023-01-01T22:51:47.508Z,10.90
2023-01-01T22:54:14.272Z,10.90
2023-01-01T22:56:41.829Z,10.90
2023-01-01T22:59:08.721Z,10.90
2023-01-01T23:01:36.733Z,10.90
2023-01-01T23:04:03.673Z,10.90
2023-01-01T23:06:32.333Z,11.00
2023-01-01T23:08:59.478Z,11.00
2023-01-01T23:11:27.821Z,11.00
2023-01-01T23:14:12.937Z,11.00
2023-01-01T23:16:40.356Z,11.00
2023-01-01T23:19:07.337Z,11.00
2023-01-01T23:21:36.486Z,11.10
2023-01-01T23:24:06.124Z,11.10
2023-01-01T23:26:33.855Z,11.10
2023-01-01T23:29:02.307Z,11.10
2023-01-01T23:31:31.465Z,11.20
2023-01-01T23:33:59.188Z,11.20
2023-01-01T23:36:28.128Z,11.20
2023-01-01T23:38:54.884Z,11.30
2023-01-01T23:41:23.411Z,11.20
2023-01-01T23:43:50.492Z,11.30
2023-01-01T23:46:18.768Z,11.30
2023-01-01T23:48:47.109Z,11.30
2023-01-01T23:51:15.479Z,11.30
2023-01-01T23:53:42.172Z,11.30
2023-01-01T23:56:09.456Z,11.30
2023-01-01T23:58:36.236Z,11.30
